Main page
METAR-TAF:

METAR-TAF

Airports :

Shahid Sadooghi Airport

Yazd, Iran

latitude: 31-54N, longitude: 054-24E, elevation: 1238 m

Current weather observation

The report was made 31 minutes ago, at 19:30 UTC
Wind 2 kt from the South/Southwest
Temperature 5°C
Humidity 45%
Pressure 1017 hPa
Visibility 10 km or more
no clouds below 1500 m and no cumulonimbus

METAR: OIYY 291930Z 21002KT CAVOK 05/M06 Q1017

Time: 23:31 (20:01 UTC)


TAF: missing

Weather observations and forecasts of more than 4000 airports (METAR and TAF reports).

The available stations are represented by yellow and red dots on the map.

Hover mouse over dot to see the name of the station.

Then click to see weather observations and forecasts.

To change the map : click on the green buttons with a black cross to zoom in, on the green button with a dash to zoom out, or on the green arrows for adjacent maps.


METAR-TAF: